createdAt,value
2018-08-30T00:00:10.351Z,19.83
2018-08-30T00:01:10.324Z,19.83
2018-08-30T00:02:10.298Z,19.83
2018-08-30T00:03:10.274Z,19.79
2018-08-30T00:04:10.248Z,19.83
2018-08-30T00:05:10.228Z,19.78
2018-08-30T00:06:10.198Z,19.78
2018-08-30T00:07:10.173Z,19.73
2018-08-30T00:08:10.147Z,19.68
2018-08-30T00:09:10.121Z,19.68
2018-08-30T00:10:10.095Z,19.58
2018-08-30T00:11:10.069Z,19.58
2018-08-30T00:12:10.046Z,19.55
2018-08-30T00:13:10.019Z,19.58
2018-08-30T00:14:09.999Z,19.58
2018-08-30T00:15:09.969Z,19.66
2018-08-30T00:16:09.945Z,19.60
2018-08-30T00:17:09.921Z,19.60
2018-08-30T00:18:09.892Z,19.50
2018-08-30T00:19:09.867Z,19.57
2018-08-30T00:20:09.841Z,19.53
2018-08-30T00:21:09.817Z,19.55
2018-08-30T00:22:09.791Z,19.60
2018-08-30T00:23:09.765Z,19.55
2018-08-30T00:24:09.740Z,19.54
2018-08-30T00:25:09.715Z,19.48
2018-08-30T00:26:09.689Z,19.57
2018-08-30T00:27:09.664Z,19.43
2018-08-30T00:28:09.638Z,19.51
2018-08-30T00:29:09.614Z,19.54
2018-08-30T00:30:09.589Z,19.51
2018-08-30T00:31:09.564Z,19.42
2018-08-30T00:32:09.542Z,19.43
2018-08-30T00:33:09.513Z,19.43
2018-08-30T00:34:09.485Z,19.51
2018-08-30T00:35:09.460Z,19.47
2018-08-30T00:36:09.437Z,19.47
2018-08-30T00:37:09.410Z,19.47
2018-08-30T00:38:09.385Z,19.50
2018-08-30T00:39:09.359Z,19.36
2018-08-30T00:40:09.334Z,19.51
2018-08-30T00:41:09.316Z,19.35
2018-08-30T00:42:09.281Z,19.39
2018-08-30T00:43:09.257Z,19.42
2018-08-30T00:44:09.232Z,19.36
2018-08-30T00:45:09.207Z,19.29
2018-08-30T00:46:09.179Z,19.23
2018-08-30T00:47:09.157Z,19.13
2018-08-30T00:48:09.128Z,19.15
2018-08-30T00:49:09.104Z,19.18
2018-08-30T00:50:09.078Z,19.25
2018-08-30T00:51:09.053Z,19.29
2018-08-30T00:52:09.030Z,19.21
2018-08-30T00:53:09.001Z,19.14
2018-08-30T00:54:08.976Z,19.14
2018-08-30T00:55:08.950Z,19.11
2018-08-30T00:56:08.925Z,19.06
2018-08-30T00:57:08.902Z,19.13
2018-08-30T00:58:08.876Z,19.14
2018-08-30T00:59:08.849Z,19.06
2018-08-30T01:00:08.824Z,19.06
2018-08-30T01:01:08.798Z,19.06
2018-08-30T01:02:08.771Z,19.10
2018-08-30T01:03:08.750Z,19.10
2018-08-30T01:04:08.720Z,19.08
2018-08-30T01:05:08.698Z,19.18
2018-08-30T01:06:08.670Z,19.17
2018-08-30T01:07:08.645Z,19.20
2018-08-30T01:08:08.621Z,19.18
2018-08-30T01:09:08.594Z,19.15
2018-08-30T01:10:08.566Z,19.21
2018-08-30T01:11:08.541Z,19.11
2018-08-30T01:12:08.518Z,19.06
2018-08-30T01:13:08.492Z,19.21
2018-08-30T01:14:08.461Z,19.05
2018-08-30T01:15:08.439Z,19.13
2018-08-30T01:16:08.412Z,19.10
2018-08-30T01:17:08.384Z,19.06
2018-08-30T01:18:08.365Z,18.99
2018-08-30T01:19:08.336Z,19.01
2018-08-30T01:20:08.307Z,18.95
2018-08-30T01:21:08.330Z,18.87
2018-08-30T01:22:08.261Z,18.92
2018-08-30T01:23:08.233Z,18.90
2018-08-30T01:24:08.207Z,18.97
2018-08-30T01:25:08.183Z,18.98
2018-08-30T01:26:08.157Z,18.98
2018-08-30T01:27:08.130Z,19.01
2018-08-30T01:28:08.106Z,18.98
2018-08-30T01:29:08.080Z,19.05
2018-08-30T01:30:08.054Z,19.11
2018-08-30T01:31:08.027Z,19.11
2018-08-30T01:32:08.007Z,19.10
2018-08-30T01:33:07.976Z,18.94
2018-08-30T01:34:07.951Z,19.01
2018-08-30T01:35:07.925Z,18.97
2018-08-30T01:36:07.897Z,18.97
2018-08-30T01:37:07.873Z,18.97
2018-08-30T01:38:07.847Z,18.91
2018-08-30T01:39:07.822Z,18.97
2018-08-30T01:40:07.799Z,18.97
2018-08-30T01:41:07.770Z,18.92
2018-08-30T01:42:07.744Z,18.95
2018-08-30T01:43:07.719Z,18.95
2018-08-30T01:44:07.693Z,18.97
2018-08-30T01:45:07.669Z,18.92
2018-08-30T01:46:07.642Z,18.86
2018-08-30T01:47:07.619Z,18.92
2018-08-30T01:48:07.592Z,18.87
2018-08-30T01:49:07.566Z,18.82
2018-08-30T01:50:07.541Z,18.84
2018-08-30T01:51:07.513Z,18.77
2018-08-30T01:52:07.488Z,18.74
2018-08-30T01:53:07.465Z,18.83
2018-08-30T01:54:07.435Z,18.74
2018-08-30T01:55:07.412Z,18.74
2018-08-30T01:56:07.385Z,18.72
2018-08-30T01:57:07.359Z,18.79
2018-08-30T01:58:07.332Z,18.87
2018-08-30T01:59:07.308Z,18.80
2018-08-30T02:00:07.282Z,18.91
2018-08-30T02:01:07.258Z,18.94
2018-08-30T02:02:07.231Z,18.86
2018-08-30T02:03:07.206Z,18.92
2018-08-30T02:04:07.182Z,18.84
2018-08-30T02:05:07.154Z,18.84
2018-08-30T02:06:07.128Z,18.87
2018-08-30T02:07:07.102Z,18.94
2018-08-30T02:08:07.077Z,18.98
2018-08-30T02:09:07.053Z,19.02
2018-08-30T02:10:07.026Z,18.95
2018-08-30T02:11:06.999Z,18.97
2018-08-30T02:12:06.976Z,18.99
2018-08-30T02:13:06.951Z,18.97
2018-08-30T02:14:06.923Z,19.05
2018-08-30T02:15:06.897Z,18.95
2018-08-30T02:16:06.873Z,18.99
2018-08-30T02:17:06.850Z,19.01
2018-08-30T02:18:06.821Z,18.97
2018-08-30T02:19:08.629Z,19.08
2018-08-30T02:20:06.768Z,19.05
2018-08-30T02:21:06.745Z,19.11
2018-08-30T02:22:06.721Z,19.06
2018-08-30T02:23:06.695Z,19.13
2018-08-30T02:24:06.668Z,19.14
2018-08-30T02:25:06.646Z,19.15
2018-08-30T02:26:06.617Z,19.10
2018-08-30T02:27:06.594Z,19.17
2018-08-30T02:28:06.567Z,19.06
2018-08-30T02:29:06.542Z,19.11
2018-08-30T02:30:06.517Z,19.05
2018-08-30T02:31:06.493Z,19.10
2018-08-30T02:32:06.467Z,19.13
2018-08-30T02:33:06.442Z,19.08
2018-08-30T02:34:06.415Z,19.06
2018-08-30T02:35:06.389Z,19.17
2018-08-30T02:36:06.365Z,19.05
2018-08-30T02:37:06.342Z,19.14
2018-08-30T02:38:06.313Z,19.11
2018-08-30T02:39:06.290Z,19.01
2018-08-30T02:40:06.265Z,19.06
2018-08-30T02:41:06.236Z,19.02
2018-08-30T02:42:06.216Z,19.11
2018-08-30T02:43:06.190Z,19.06
2018-08-30T02:44:06.163Z,19.05
2018-08-30T02:45:06.137Z,19.13
2018-08-30T02:46:06.110Z,19.13
2018-08-30T02:47:06.088Z,19.10
2018-08-30T02:48:06.060Z,19.08
2018-08-30T02:49:06.073Z,19.20
2018-08-30T02:50:06.011Z,19.21
2018-08-30T02:51:05.984Z,19.20
2018-08-30T02:52:05.959Z,19.18
2018-08-30T02:53:05.934Z,19.20
2018-08-30T02:54:05.909Z,19.11
2018-08-30T02:55:05.884Z,19.08
2018-08-30T02:56:05.859Z,19.10
2018-08-30T02:57:06.643Z,19.11
2018-08-30T02:58:05.806Z,19.13
2018-08-30T02:59:05.784Z,19.08
2018-08-30T03:00:05.763Z,19.15
2018-08-30T03:01:05.734Z,18.99
2018-08-30T03:02:05.708Z,19.06
2018-08-30T03:03:05.685Z,18.99
2018-08-30T03:04:05.658Z,18.97
2018-08-30T03:05:05.634Z,19.01
2018-08-30T03:06:05.608Z,18.99
2018-08-30T03:07:05.583Z,18.95
2018-08-30T03:08:05.556Z,18.97
2018-08-30T03:09:05.531Z,18.98
2018-08-30T03:10:05.506Z,18.97
2018-08-30T03:11:05.480Z,19.06
2018-08-30T03:12:05.459Z,18.91
2018-08-30T03:13:05.431Z,18.91
2018-08-30T03:14:05.403Z,18.90
2018-08-30T03:15:05.380Z,18.86
2018-08-30T03:16:05.355Z,18.84
2018-08-30T03:17:05.331Z,18.91
2018-08-30T03:18:05.305Z,18.90
2018-08-30T03:19:05.278Z,18.87
2018-08-30T03:20:05.255Z,18.87
2018-08-30T03:21:05.228Z,18.86
2018-08-30T03:22:05.204Z,18.91
2018-08-30T03:23:05.178Z,18.82
2018-08-30T03:24:05.154Z,18.77
2018-08-30T03:25:05.128Z,18.82
2018-08-30T03:26:05.102Z,18.82
2018-08-30T03:27:05.077Z,18.79
2018-08-30T03:28:05.052Z,18.80
2018-08-30T03:29:05.027Z,18.74
2018-08-30T03:30:05.007Z,18.77
2018-08-30T03:31:05.060Z,18.73
2018-08-30T03:32:04.979Z,18.73
2018-08-30T03:33:04.925Z,18.70
2018-08-30T03:34:04.902Z,18.73
2018-08-30T03:35:04.874Z,18.70
2018-08-30T03:36:04.854Z,18.68
2018-08-30T03:37:04.824Z,18.77
2018-08-30T03:38:04.800Z,18.67
2018-08-30T03:39:04.776Z,18.59
2018-08-30T03:40:04.749Z,18.58
2018-08-30T03:41:04.722Z,18.64
2018-08-30T03:42:04.698Z,18.58
2018-08-30T03:43:04.672Z,18.50
2018-08-30T03:44:04.647Z,18.52
2018-08-30T03:45:04.621Z,18.37
2018-08-30T03:46:04.596Z,18.39
2018-08-30T03:47:04.580Z,18.29
2018-08-30T03:48:04.547Z,18.29
2018-08-30T03:49:04.520Z,18.31
2018-08-30T03:50:04.495Z,18.31
2018-08-30T03:51:04.469Z,18.28
2018-08-30T03:52:04.445Z,18.29
2018-08-30T03:53:04.418Z,18.17
2018-08-30T03:54:04.394Z,18.19
2018-08-30T03:55:04.416Z,18.13
2018-08-30T03:56:04.342Z,18.21
2018-08-30T03:57:04.319Z,18.13
2018-08-30T03:58:04.289Z,18.10
2018-08-30T03:59:04.266Z,18.13
2018-08-30T04:00:04.240Z,18.03
2018-08-30T04:01:04.216Z,18.00
2018-08-30T04:02:04.188Z,18.12
2018-08-30T04:03:04.164Z,18.07
2018-08-30T04:04:04.195Z,18.02
2018-08-30T04:05:04.115Z,17.95
2018-08-30T04:06:04.090Z,18.04
2018-08-30T04:07:04.062Z,17.97
2018-08-30T04:08:04.041Z,17.85
2018-08-30T04:09:04.012Z,17.82
2018-08-30T04:10:03.987Z,17.76
2018-08-30T04:11:03.960Z,17.87
2018-08-30T04:12:03.936Z,17.71
2018-08-30T04:13:03.912Z,17.66
2018-08-30T04:14:03.884Z,17.54
2018-08-30T04:15:03.858Z,17.50
2018-08-30T04:16:03.831Z,17.46
2018-08-30T04:17:03.811Z,17.40
2018-08-30T04:18:03.780Z,17.35
2018-08-30T04:19:03.755Z,17.35
2018-08-30T04:20:03.730Z,17.40
2018-08-30T04:21:03.704Z,17.41
2018-08-30T04:22:03.768Z,17.26
2018-08-30T04:23:03.651Z,17.26
2018-08-30T04:24:03.626Z,17.30
2018-08-30T04:25:03.600Z,17.29
2018-08-30T04:26:03.574Z,17.32
2018-08-30T04:27:03.562Z,17.28
2018-08-30T04:28:03.523Z,17.17
2018-08-30T04:29:03.496Z,17.03
2018-08-30T04:30:03.472Z,17.08
2018-08-30T04:31:03.446Z,16.93
2018-08-30T04:32:03.418Z,16.98
2018-08-30T04:33:03.394Z,16.83
2018-08-30T04:34:03.367Z,16.85
2018-08-30T04:35:04.161Z,16.86
2018-08-30T04:36:03.319Z,16.81
2018-08-30T04:37:03.290Z,16.86
2018-08-30T04:38:03.262Z,16.81
2018-08-30T04:39:03.237Z,16.80
2018-08-30T04:40:03.212Z,16.83
2018-08-30T04:41:03.185Z,16.80
2018-08-30T04:42:03.158Z,16.83
2018-08-30T04:43:03.131Z,16.86
2018-08-30T04:44:03.107Z,16.83
2018-08-30T04:45:03.080Z,16.88
2018-08-30T04:46:03.058Z,16.89
2018-08-30T04:47:03.029Z,16.92
2018-08-30T04:48:03.004Z,16.90
2018-08-30T04:49:02.976Z,16.93
2018-08-30T04:50:02.993Z,16.89
2018-08-30T04:51:02.923Z,16.80
2018-08-30T04:52:02.896Z,16.80
2018-08-30T04:53:02.870Z,16.80
2018-08-30T04:54:02.845Z,16.78
2018-08-30T04:55:02.822Z,16.83
2018-08-30T04:56:02.795Z,16.75
2018-08-30T04:57:02.767Z,16.71
2018-08-30T04:58:02.739Z,16.74
2018-08-30T04:59:02.716Z,16.60
2018-08-30T05:00:02.688Z,16.68
2018-08-30T05:01:10.577Z,16.65
2018-08-30T05:02:55.785Z,16.77
2018-08-30T05:03:55.736Z,16.68
2018-08-30T05:05:49.342Z,16.78
2018-08-30T05:06:49.310Z,16.83
2018-08-30T05:08:42.142Z,16.86
2018-08-30T05:09:42.094Z,16.89
2018-08-30T05:11:35.413Z,16.98
2018-08-30T05:12:35.367Z,17.00
2018-08-30T05:14:28.180Z,17.07
2018-08-30T05:15:28.150Z,17.06
2018-08-30T05:17:21.473Z,16.96
2018-08-30T05:18:21.426Z,16.95
2018-08-30T05:20:14.538Z,16.93
2018-08-30T05:21:14.500Z,16.98
2018-08-30T05:23:07.330Z,16.93
2018-08-30T05:24:07.280Z,16.95
2018-08-30T05:26:00.686Z,16.93
2018-08-30T05:27:00.065Z,16.96
2018-08-30T05:28:53.184Z,16.92
2018-08-30T05:29:53.214Z,16.98
2018-08-30T05:31:46.242Z,17.06
2018-08-30T05:32:46.208Z,17.04
2018-08-30T05:33:46.191Z,17.07
2018-08-30T05:34:46.165Z,17.04
2018-08-30T05:35:46.197Z,17.07
2018-08-30T05:36:46.103Z,17.07
2018-08-30T05:37:46.083Z,17.00
2018-08-30T05:38:46.053Z,17.07
2018-08-30T05:39:46.025Z,17.04
2018-08-30T05:40:46.000Z,16.93
2018-08-30T05:41:45.972Z,16.90
2018-08-30T05:42:45.947Z,17.00
2018-08-30T05:43:45.923Z,17.08
2018-08-30T05:44:45.955Z,17.11
2018-08-30T05:45:45.869Z,17.08
2018-08-30T05:46:45.844Z,17.15
2018-08-30T05:47:45.823Z,17.06
2018-08-30T05:48:45.792Z,17.00
2018-08-30T05:49:45.767Z,17.07
2018-08-30T05:50:45.744Z,17.03
2018-08-30T05:51:45.713Z,17.00
2018-08-30T05:52:45.685Z,17.03
2018-08-30T05:53:45.662Z,17.13
2018-08-30T05:54:45.635Z,17.04
2018-08-30T05:55:45.609Z,17.07
2018-08-30T05:56:45.641Z,17.11
2018-08-30T05:57:45.556Z,17.18
2018-08-30T05:58:45.534Z,17.15
2018-08-30T05:59:45.506Z,17.20
2018-08-30T06:00:45.479Z,17.28
2018-08-30T06:01:45.455Z,17.25
2018-08-30T06:02:45.426Z,17.28
2018-08-30T06:03:45.400Z,17.23
2018-08-30T06:04:45.373Z,17.22
2018-08-30T06:05:45.347Z,17.30
2018-08-30T06:06:45.323Z,17.15
2018-08-30T06:07:45.299Z,17.26
2018-08-30T06:08:45.268Z,17.32
2018-08-30T06:09:45.244Z,17.30
2018-08-30T06:10:45.218Z,17.33
2018-08-30T06:11:45.192Z,17.38
2018-08-30T06:12:45.164Z,17.35
2018-08-30T06:13:45.140Z,17.38
2018-08-30T06:14:45.113Z,17.38
2018-08-30T06:15:45.090Z,17.32
2018-08-30T06:16:45.063Z,17.41
2018-08-30T06:17:45.037Z,17.46
2018-08-30T06:18:45.010Z,17.38
2018-08-30T06:19:44.983Z,17.26
2018-08-30T06:20:44.957Z,17.26
2018-08-30T06:21:44.930Z,17.29
2018-08-30T06:22:44.905Z,17.25
2018-08-30T06:23:44.879Z,17.20
2018-08-30T06:24:46.551Z,17.22
2018-08-30T06:25:44.830Z,17.15
2018-08-30T06:26:44.883Z,17.15
2018-08-30T06:27:44.776Z,17.22
2018-08-30T06:28:44.749Z,17.22
2018-08-30T06:29:44.723Z,17.25
2018-08-30T06:30:44.698Z,17.07
2018-08-30T06:31:44.677Z,17.10
2018-08-30T06:32:44.704Z,17.11
2018-08-30T06:33:44.621Z,17.04
2018-08-30T06:34:44.653Z,17.10
2018-08-30T06:35:44.569Z,17.18
2018-08-30T06:36:44.542Z,17.17
2018-08-30T06:37:44.515Z,17.20
2018-08-30T06:38:44.572Z,17.11
2018-08-30T06:39:44.465Z,17.17
2018-08-30T06:40:44.436Z,16.99
2018-08-30T06:41:44.411Z,17.10
2018-08-30T06:42:44.385Z,17.04
2018-08-30T06:43:44.359Z,17.03
2018-08-30T06:44:44.333Z,17.03
2018-08-30T06:45:44.311Z,16.96
2018-08-30T06:46:44.283Z,16.93
2018-08-30T06:47:44.255Z,16.99
2018-08-30T06:48:46.108Z,16.88
2018-08-30T06:49:44.202Z,16.95
2018-08-30T06:50:44.177Z,16.93
2018-08-30T06:51:44.150Z,16.95
2018-08-30T06:52:44.129Z,16.96
2018-08-30T06:53:44.098Z,16.92
2018-08-30T06:54:44.076Z,16.90
2018-08-30T06:55:44.047Z,16.93
2018-08-30T06:56:44.020Z,16.81
2018-08-30T06:57:43.993Z,16.85
2018-08-30T06:58:43.968Z,16.85
2018-08-30T06:59:43.949Z,16.88
2018-08-30T07:00:43.932Z,16.95
2018-08-30T07:01:43.891Z,16.96
2018-08-30T07:02:43.864Z,16.95
2018-08-30T07:03:43.837Z,16.95
2018-08-30T07:04:43.813Z,16.99
2018-08-30T07:05:43.778Z,17.04
2018-08-30T07:06:43.759Z,17.03
2018-08-30T07:07:43.733Z,17.10
2018-08-30T07:08:43.706Z,17.10
2018-08-30T07:09:43.681Z,17.10
2018-08-30T07:10:43.658Z,17.15
2018-08-30T07:11:43.631Z,17.11
2018-08-30T07:12:43.608Z,17.08
2018-08-30T07:13:43.576Z,17.06
2018-08-30T07:14:43.677Z,17.17
2018-08-30T07:15:43.526Z,17.15
2018-08-30T07:16:43.502Z,17.26
2018-08-30T07:17:43.474Z,17.28
2018-08-30T07:18:43.448Z,17.22
2018-08-30T07:19:43.422Z,17.22
2018-08-30T07:20:43.399Z,17.28
2018-08-30T07:21:43.368Z,17.15
2018-08-30T07:22:43.343Z,17.14
2018-08-30T07:23:45.060Z,17.17
2018-08-30T07:24:43.293Z,17.22
2018-08-30T07:25:43.268Z,17.14
2018-08-30T07:26:43.243Z,17.13
2018-08-30T07:27:43.210Z,17.28
2018-08-30T07:28:43.191Z,17.30
2018-08-30T07:29:43.163Z,17.18
2018-08-30T07:30:43.137Z,17.15
2018-08-30T07:32:43.134Z,17.23
2018-08-30T07:33:43.060Z,17.33
2018-08-30T07:34:43.084Z,17.26
2018-08-30T07:35:43.014Z,17.26
2018-08-30T07:36:43.566Z,17.35
2018-08-30T07:37:42.962Z,17.40
2018-08-30T07:38:42.936Z,17.32
2018-08-30T07:39:42.907Z,17.36
2018-08-30T07:40:42.881Z,17.33
2018-08-30T07:41:42.858Z,17.38
2018-08-30T07:42:42.837Z,17.51
2018-08-30T07:43:42.806Z,17.51
2018-08-30T07:44:42.781Z,17.63
2018-08-30T07:45:42.754Z,17.73
2018-08-30T07:46:42.733Z,17.85
2018-08-30T07:47:42.703Z,17.74
2018-08-30T07:48:42.692Z,17.78
2018-08-30T07:49:42.653Z,17.84
2018-08-30T07:50:42.627Z,17.87
2018-08-30T07:51:42.602Z,17.88
2018-08-30T07:52:42.573Z,17.99
2018-08-30T07:53:42.556Z,17.99
2018-08-30T07:54:42.526Z,17.97
2018-08-30T07:55:42.501Z,18.04
2018-08-30T07:56:42.475Z,17.92
2018-08-30T07:57:42.450Z,17.94
2018-08-30T07:58:42.427Z,17.81
2018-08-30T07:59:42.400Z,17.82
2018-08-30T08:00:42.378Z,17.81
2018-08-30T08:01:42.355Z,17.78
2018-08-30T08:02:42.324Z,17.82
2018-08-30T08:03:42.299Z,17.87
2018-08-30T08:04:42.274Z,17.79
2018-08-30T08:05:42.248Z,17.82
2018-08-30T08:06:42.224Z,17.89
2018-08-30T08:07:42.199Z,17.81
2018-08-30T08:08:42.173Z,17.84
2018-08-30T08:09:42.147Z,17.88
2018-08-30T08:10:42.124Z,18.07
2018-08-30T08:11:42.098Z,17.85
2018-08-30T08:12:42.154Z,17.69
2018-08-30T08:13:42.048Z,17.66
2018-08-30T08:14:42.022Z,17.55
2018-08-30T08:15:41.999Z,17.48
2018-08-30T08:16:41.973Z,17.53
2018-08-30T08:17:41.946Z,17.48
2018-08-30T08:18:41.922Z,17.59
2018-08-30T08:19:41.898Z,17.57
2018-08-30T08:20:41.874Z,17.67
2018-08-30T08:21:41.854Z,17.87
2018-08-30T08:22:41.825Z,17.85
2018-08-30T08:23:41.796Z,17.91
2018-08-30T08:24:41.769Z,17.97
2018-08-30T08:25:41.747Z,18.00
2018-08-30T08:26:41.726Z,18.06
2018-08-30T08:27:41.697Z,18.09
2018-08-30T08:28:41.671Z,18.33
2018-08-30T08:29:41.648Z,18.28
2018-08-30T08:30:41.619Z,18.43
2018-08-30T08:31:41.598Z,18.57
2018-08-30T08:32:41.573Z,18.65
2018-08-30T08:33:41.542Z,18.61
2018-08-30T08:34:41.540Z,18.62
2018-08-30T08:35:41.499Z,18.72
2018-08-30T08:36:41.475Z,18.77
2018-08-30T08:37:41.451Z,18.76
2018-08-30T08:38:41.425Z,18.91
2018-08-30T08:39:41.402Z,18.87
2018-08-30T08:40:41.376Z,18.98
2018-08-30T08:41:41.350Z,19.05
2018-08-30T08:42:41.329Z,19.20
2018-08-30T08:43:41.304Z,19.28
2018-08-30T08:44:41.282Z,19.10
2018-08-30T08:45:41.273Z,19.14
2018-08-30T08:46:42.078Z,19.02
2018-08-30T08:47:41.263Z,19.14
2018-08-30T08:48:41.187Z,19.06
2018-08-30T08:49:41.162Z,19.10
2018-08-30T08:50:41.138Z,19.01
2018-08-30T08:51:41.115Z,19.13
2018-08-30T08:52:41.090Z,19.06
2018-08-30T08:53:42.584Z,18.83
2018-08-30T08:54:41.044Z,18.61
2018-08-30T08:55:41.019Z,18.47
2018-08-30T08:56:41.580Z,18.42
2018-08-30T08:57:40.977Z,18.47
2018-08-30T08:58:41.590Z,18.68
2018-08-30T08:59:41.582Z,18.73
2018-08-30T09:00:40.912Z,18.82
2018-08-30T09:01:40.881Z,18.94
2018-08-30T09:02:40.859Z,18.90
2018-08-30T09:03:40.840Z,18.97
2018-08-30T09:04:40.807Z,19.08
2018-08-30T09:05:48.203Z,19.02
2018-08-30T09:07:33.857Z,18.95
2018-08-30T09:08:33.802Z,19.02
2018-08-30T09:10:26.951Z,18.79
2018-08-30T09:11:26.899Z,18.61
2018-08-30T09:13:19.720Z,18.49
2018-08-30T09:14:20.359Z,18.47
2018-08-30T09:16:12.822Z,18.36
2018-08-30T09:17:12.771Z,18.34
2018-08-30T09:19:06.430Z,18.17
2018-08-30T09:20:06.350Z,18.15
2018-08-30T09:21:59.192Z,18.21
2018-08-30T09:22:59.214Z,18.15
2018-08-30T09:24:51.981Z,18.24
2018-08-30T09:25:51.931Z,18.17
2018-08-30T09:27:45.051Z,18.17
2018-08-30T09:28:45.021Z,18.15
2018-08-30T09:30:37.858Z,18.12
2018-08-30T09:31:37.809Z,18.04
2018-08-30T09:33:31.721Z,18.12
2018-08-30T09:34:30.917Z,18.10
2018-08-30T09:36:23.713Z,17.92
2018-08-30T09:37:23.685Z,17.76
2018-08-30T09:38:23.654Z,17.57
2018-08-30T09:39:23.625Z,17.44
2018-08-30T09:40:23.605Z,17.29
2018-08-30T09:41:23.580Z,17.23
2018-08-30T09:42:23.568Z,17.23
2018-08-30T09:43:23.530Z,17.26
2018-08-30T09:44:23.505Z,17.29
2018-08-30T09:45:23.483Z,17.26
2018-08-30T09:46:23.456Z,17.25
2018-08-30T09:47:23.433Z,17.23
2018-08-30T09:48:23.407Z,17.43
2018-08-30T09:49:23.438Z,17.48
2018-08-30T09:50:23.352Z,17.47
2018-08-30T09:51:23.338Z,17.57
2018-08-30T09:52:23.317Z,17.48
2018-08-30T09:53:23.285Z,17.44
2018-08-30T09:54:23.273Z,17.46
2018-08-30T09:55:23.238Z,17.48
2018-08-30T09:56:23.215Z,17.48
2018-08-30T09:57:23.340Z,17.50
2018-08-30T09:58:23.151Z,17.64
2018-08-30T09:59:23.133Z,17.71
2018-08-30T10:00:23.107Z,17.79
2018-08-30T10:01:23.080Z,17.85
2018-08-30T10:02:23.061Z,17.84
2018-08-30T10:03:23.800Z,17.84
2018-08-30T10:04:23.005Z,17.82
2018-08-30T10:05:23.856Z,17.84
2018-08-30T10:06:22.952Z,17.95
2018-08-30T10:07:33.803Z,17.92
2018-08-30T10:08:23.823Z,18.04
2018-08-30T10:09:22.890Z,18.04
2018-08-30T10:10:22.874Z,18.00
2018-08-30T10:11:22.907Z,17.99
2018-08-30T10:12:22.805Z,18.00
2018-08-30T10:13:22.798Z,17.99
2018-08-30T10:14:22.795Z,17.91
2018-08-30T10:15:22.759Z,17.92
2018-08-30T10:16:22.824Z,17.97
2018-08-30T10:17:22.687Z,17.95
2018-08-30T10:18:22.655Z,17.82
2018-08-30T10:19:22.625Z,17.85
2018-08-30T10:20:23.349Z,17.88
2018-08-30T10:21:22.621Z,17.87
2018-08-30T10:22:24.308Z,17.97
2018-08-30T10:23:22.588Z,17.95
2018-08-30T10:24:24.383Z,18.07
2018-08-30T10:25:22.496Z,18.00
2018-08-30T10:26:22.463Z,17.95
2018-08-30T10:27:22.430Z,18.02
2018-08-30T10:28:22.513Z,18.02
2018-08-30T10:29:22.387Z,17.97
2018-08-30T10:30:22.360Z,18.02
2018-08-30T10:31:22.459Z,18.02
2018-08-30T10:32:22.311Z,18.06
2018-08-30T10:33:22.399Z,18.07
2018-08-30T10:34:24.858Z,18.10
2018-08-30T10:35:22.293Z,18.17
2018-08-30T10:36:22.301Z,18.17
2018-08-30T10:37:22.811Z,18.12
2018-08-30T10:38:22.815Z,18.33
2018-08-30T10:39:22.133Z,18.10
2018-08-30T10:40:22.284Z,18.10
2018-08-30T10:41:22.103Z,18.13
2018-08-30T10:42:22.063Z,18.09
2018-08-30T10:43:22.118Z,18.07
2018-08-30T10:44:22.175Z,18.09
2018-08-30T10:45:23.813Z,18.03
2018-08-30T10:46:22.066Z,18.09
2018-08-30T10:47:21.942Z,18.04
2018-08-30T10:48:21.947Z,18.10
2018-08-30T10:49:21.951Z,18.09
2018-08-30T10:50:21.867Z,18.15
2018-08-30T10:51:21.875Z,18.22
2018-08-30T10:52:21.841Z,18.17
2018-08-30T10:53:21.788Z,18.24
2018-08-30T10:54:21.891Z,18.27
2018-08-30T10:55:24.324Z,18.18
2018-08-30T10:56:21.909Z,18.28
2018-08-30T10:57:21.697Z,18.25
2018-08-30T10:58:22.325Z,18.31
2018-08-30T10:59:21.640Z,18.36
2018-08-30T11:00:21.652Z,18.33
2018-08-30T11:01:21.591Z,18.40
2018-08-30T11:02:21.570Z,18.52
2018-08-30T11:03:22.447Z,18.64
2018-08-30T11:04:21.552Z,18.68
2018-08-30T11:05:21.635Z,18.65
2018-08-30T11:06:21.488Z,18.72
2018-08-30T11:07:21.509Z,18.65
2018-08-30T11:08:21.459Z,18.76
2018-08-30T11:09:21.436Z,18.79
2018-08-30T11:10:21.548Z,18.76
2018-08-30T11:11:21.376Z,18.64
2018-08-30T11:12:21.456Z,18.47
2018-08-30T11:13:21.334Z,18.59
2018-08-30T11:14:21.464Z,18.59
2018-08-30T11:15:21.258Z,18.49
2018-08-30T11:16:21.275Z,18.55
2018-08-30T11:17:21.209Z,18.62
2018-08-30T11:18:21.184Z,18.68
2018-08-30T11:19:21.182Z,18.64
2018-08-30T11:21:22.878Z,18.64
2018-08-30T11:22:21.137Z,18.79
2018-08-30T11:23:21.088Z,18.73
2018-08-30T11:24:21.062Z,18.70
2018-08-30T11:25:21.212Z,18.73
2018-08-30T11:26:20.993Z,18.82
2018-08-30T11:27:20.984Z,18.83
2018-08-30T11:28:20.946Z,18.76
2018-08-30T11:29:21.060Z,18.97
2018-08-30T11:30:20.893Z,18.94
2018-08-30T11:31:20.877Z,19.08
2018-08-30T11:32:21.045Z,19.21
2018-08-30T11:33:20.935Z,19.36
2018-08-30T11:34:20.811Z,19.50
2018-08-30T11:35:20.776Z,19.54
2018-08-30T11:37:20.740Z,19.51
2018-08-30T11:38:20.720Z,19.40
2018-08-30T11:39:20.828Z,19.47
2018-08-30T11:40:20.752Z,19.50
2018-08-30T11:41:22.424Z,19.63
2018-08-30T11:42:20.679Z,19.68
2018-08-30T11:43:20.679Z,19.57
2018-08-30T11:44:20.566Z,19.36
2018-08-30T11:45:22.318Z,19.05
2018-08-30T11:46:20.517Z,18.99
2018-08-30T11:47:20.502Z,18.87
2018-08-30T11:48:22.314Z,18.99
2018-08-30T11:49:20.458Z,18.97
2018-08-30T11:50:20.470Z,19.05
2018-08-30T11:51:20.411Z,19.25
2018-08-30T11:52:20.476Z,19.39
2018-08-30T11:53:20.354Z,19.60
2018-08-30T11:55:20.384Z,19.70
2018-08-30T11:56:20.364Z,19.80
2018-08-30T11:57:20.290Z,19.88
2018-08-30T11:58:20.252Z,20.02
2018-08-30T11:59:20.224Z,20.21
2018-08-30T12:00:20.234Z,20.21
2018-08-30T12:01:20.192Z,20.25
2018-08-30T12:02:20.275Z,20.34
2018-08-30T12:03:20.265Z,20.46
2018-08-30T12:04:20.135Z,20.54
2018-08-30T12:05:20.853Z,20.64
2018-08-30T12:06:20.069Z,20.68
2018-08-30T12:07:20.043Z,20.62
2018-08-30T12:08:20.155Z,20.47
2018-08-30T12:09:20.022Z,20.35
2018-08-30T12:10:20.095Z,20.33
2018-08-30T12:11:19.999Z,20.43
2018-08-30T12:12:19.934Z,20.27
2018-08-30T12:13:22.845Z,20.08
2018-08-30T12:14:19.916Z,20.13
2018-08-30T12:15:20.837Z,20.31
2018-08-30T12:16:19.846Z,20.49
2018-08-30T12:17:19.828Z,20.58
2018-08-30T12:18:19.808Z,20.62
2018-08-30T12:19:19.801Z,20.65
2018-08-30T12:20:19.779Z,20.59
2018-08-30T12:21:19.741Z,20.47
2018-08-30T12:22:19.792Z,20.46
2018-08-30T12:23:19.721Z,20.54
2018-08-30T12:24:21.412Z,20.62
2018-08-30T12:25:19.657Z,20.65
2018-08-30T12:26:19.640Z,20.62
2018-08-30T12:27:20.384Z,20.64
2018-08-30T12:28:19.704Z,20.69
2018-08-30T12:29:19.631Z,20.69
2018-08-30T12:30:21.347Z,20.77
2018-08-30T12:31:19.623Z,20.76
2018-08-30T12:32:19.546Z,20.95
2018-08-30T12:33:19.550Z,20.99
2018-08-30T12:34:19.520Z,20.91
2018-08-30T12:35:19.585Z,21.11
2018-08-30T12:36:19.489Z,21.26
2018-08-30T12:37:21.406Z,21.39
2018-08-30T12:38:19.382Z,21.54
2018-08-30T12:39:19.446Z,21.44
2018-08-30T12:40:19.476Z,21.56
2018-08-30T12:41:19.357Z,21.48
2018-08-30T12:42:19.356Z,21.54
2018-08-30T12:43:19.500Z,21.48
2018-08-30T12:44:19.338Z,21.60
2018-08-30T12:45:19.271Z,21.51
2018-08-30T12:46:19.906Z,21.29
2018-08-30T12:47:19.190Z,21.16
2018-08-30T12:48:19.248Z,21.01
2018-08-30T12:49:19.151Z,20.99
2018-08-30T12:50:19.286Z,20.80
2018-08-30T12:51:19.282Z,20.87
2018-08-30T12:52:19.284Z,20.90
2018-08-30T12:54:19.158Z,21.09
2018-08-30T12:55:19.203Z,21.17
2018-08-30T12:56:20.958Z,21.09
2018-08-30T12:57:19.058Z,21.04
2018-08-30T12:58:19.160Z,21.05
2018-08-30T12:59:20.025Z,21.14
2018-08-30T13:00:19.049Z,21.16
2018-08-30T13:01:19.038Z,20.91
2018-08-30T13:02:19.064Z,20.96
2018-08-30T13:03:19.167Z,21.06
2018-08-30T13:04:19.079Z,20.98
2018-08-30T13:05:19.074Z,20.96
2018-08-30T13:06:19.093Z,20.76
2018-08-30T13:07:19.003Z,20.59
2018-08-30T13:08:19.076Z,20.47
2018-08-30T13:09:18.905Z,20.35
2018-08-30T13:10:19.084Z,20.35
2018-08-30T13:11:19.068Z,20.42
2018-08-30T13:12:20.605Z,20.49
2018-08-30T13:13:18.975Z,20.51
2018-08-30T13:14:19.037Z,20.66
2018-08-30T13:15:19.050Z,20.64
2018-08-30T13:16:18.845Z,20.66